sensor_id;sensor_type;location;lat;lon;timestamp;P1;durP1;ratioP1;P2;durP2;ratioP2
43042;SDS011;28667;50.758;6.096;2022-11-15T00:01:50;6.50;;;3.78;;
43042;SDS011;28667;50.758;6.096;2022-11-15T00:04:34;4.97;;;3.45;;
43042;SDS011;28667;50.758;6.096;2022-11-15T00:07:18;6.90;;;3.40;;
43042;SDS011;28667;50.758;6.096;2022-11-15T00:10:03;4.72;;;3.30;;
43042;SDS011;28667;50.758;6.096;2022-11-15T00:12:48;4.85;;;3.40;;
43042;SDS011;28667;50.758;6.096;2022-11-15T00:15:34;4.65;;;2.70;;
43042;SDS011;28667;50.758;6.096;2022-11-15T00:18:21;3.92;;;2.70;;
43042;SDS011;28667;50.758;6.096;2022-11-15T00:21:10;4.10;;;2.60;;
43042;SDS011;28667;50.758;6.096;2022-11-15T00:23:55;6.10;;;2.45;;
43042;SDS011;28667;50.758;6.096;2022-11-15T00:26:39;3.22;;;2.28;;
43042;SDS011;28667;50.758;6.096;2022-11-15T00:29:23;5.78;;;2.63;;
43042;SDS011;28667;50.758;6.096;2022-11-15T00:32:07;3.47;;;2.33;;
43042;SDS011;28667;50.758;6.096;2022-11-15T00:34:51;3.25;;;2.67;;
43042;SDS011;28667;50.758;6.096;2022-11-15T00:37:35;3.83;;;1.88;;
43042;SDS011;28667;50.758;6.096;2022-11-15T00:40:19;3.28;;;2.30;;
43042;SDS011;28667;50.758;6.096;2022-11-15T00:43:04;6.90;;;2.13;;
43042;SDS011;28667;50.758;6.096;2022-11-15T00:45:48;5.10;;;2.55;;
43042;SDS011;28667;50.758;6.096;2022-11-15T00:48:32;7.43;;;2.58;;
43042;SDS011;28667;50.758;6.096;2022-11-15T00:51:16;2.85;;;2.15;;
43042;SDS011;28667;50.758;6.096;2022-11-15T00:54:00;4.47;;;2.00;;
43042;SDS011;28667;50.758;6.096;2022-11-15T00:56:44;3.75;;;2.00;;
43042;SDS011;28667;50.758;6.096;2022-11-15T00:59:28;2.78;;;2.13;;
43042;SDS011;28667;50.758;6.096;2022-11-15T01:02:12;3.33;;;1.95;;
43042;SDS011;28667;50.758;6.096;2022-11-15T01:04:57;4.07;;;1.60;;
43042;SDS011;28667;50.758;6.096;2022-11-15T01:07:41;3.50;;;1.90;;
43042;SDS011;28667;50.758;6.096;2022-11-15T01:10:25;2.45;;;2.17;;
43042;SDS011;28667;50.758;6.096;2022-11-15T01:13:09;5.78;;;1.98;;
43042;SDS011;28667;50.758;6.096;2022-11-15T01:15:53;2.58;;;1.90;;
43042;SDS011;28667;50.758;6.096;2022-11-15T01:18:38;4.18;;;2.03;;
43042;SDS011;28667;50.758;6.096;2022-11-15T01:21:23;3.87;;;2.03;;
43042;SDS011;28667;50.758;6.096;2022-11-15T01:24:07;4.85;;;1.80;;
43042;SDS011;28667;50.758;6.096;2022-11-15T01:26:55;5.28;;;2.08;;
43042;SDS011;28667;50.758;6.096;2022-11-15T01:29:39;2.60;;;2.03;;
43042;SDS011;28667;50.758;6.096;2022-11-15T01:32:24;2.80;;;2.15;;
43042;SDS011;28667;50.758;6.096;2022-11-15T01:35:08;3.35;;;1.90;;
43042;SDS011;28667;50.758;6.096;2022-11-15T01:37:52;4.50;;;1.83;;
43042;SDS011;28667;50.758;6.096;2022-11-15T01:40:36;1.88;;;1.77;;
43042;SDS011;28667;50.758;6.096;2022-11-15T01:49:11;2.00;;;1.58;;
43042;SDS011;28667;50.758;6.096;2022-11-15T01:51:57;2.42;;;1.50;;
43042;SDS011;28667;50.758;6.096;2022-11-15T01:54:44;2.42;;;1.95;;
43042;SDS011;28667;50.758;6.096;2022-11-15T01:57:31;4.93;;;2.17;;
43042;SDS011;28667;50.758;6.096;2022-11-15T02:00:15;1.92;;;1.65;;
43042;SDS011;28667;50.758;6.096;2022-11-15T02:03:00;3.85;;;2.25;;
43042;SDS011;28667;50.758;6.096;2022-11-15T02:08:30;4.10;;;2.22;;
43042;SDS011;28667;50.758;6.096;2022-11-15T02:11:14;4.15;;;2.08;;
43042;SDS011;28667;50.758;6.096;2022-11-15T02:13:58;5.32;;;2.50;;
43042;SDS011;28667;50.758;6.096;2022-11-15T02:28:54;3.35;;;2.53;;
43042;SDS011;28667;50.758;6.096;2022-11-15T02:31:49;5.07;;;2.75;;
43042;SDS011;28667;50.758;6.096;2022-11-15T02:41:26;4.33;;;2.70;;
43042;SDS011;28667;50.758;6.096;2022-11-15T02:44:13;3.42;;;2.45;;
43042;SDS011;28667;50.758;6.096;2022-11-15T02:47:03;4.47;;;3.10;;
43042;SDS011;28667;50.758;6.096;2022-11-15T02:49:58;4.90;;;2.70;;
43042;SDS011;28667;50.758;6.096;2022-11-15T02:52:50;5.03;;;2.30;;
43042;SDS011;28667;50.758;6.096;2022-11-15T02:55:38;2.97;;;2.67;;
43042;SDS011;28667;50.758;6.096;2022-11-15T03:04:21;3.58;;;2.45;;
43042;SDS011;28667;50.758;6.096;2022-11-15T03:16:50;2.72;;;2.28;;
43042;SDS011;28667;50.758;6.096;2022-11-15T03:19:44;4.32;;;2.65;;
43042;SDS011;28667;50.758;6.096;2022-11-15T03:22:36;4.57;;;2.55;;
43042;SDS011;28667;50.758;6.096;2022-11-15T03:25:24;1.95;;;1.75;;
43042;SDS011;28667;50.758;6.096;2022-11-15T03:28:13;3.13;;;2.15;;
43042;SDS011;28667;50.758;6.096;2022-11-15T03:31:04;4.10;;;1.85;;
43042;SDS011;28667;50.758;6.096;2022-11-15T03:34:10;2.15;;;1.65;;
43042;SDS011;28667;50.758;6.096;2022-11-15T03:36:58;1.85;;;1.60;;
43042;SDS011;28667;50.758;6.096;2022-11-15T03:39:43;2.20;;;2.00;;
43042;SDS011;28667;50.758;6.096;2022-11-15T03:43:11;2.75;;;1.80;;
43042;SDS011;28667;50.758;6.096;2022-11-15T03:45:36;2.58;;;1.75;;
43042;SDS011;28667;50.758;6.096;2022-11-15T03:48:27;1.75;;;1.63;;
43042;SDS011;28667;50.758;6.096;2022-11-15T03:51:26;2.70;;;1.50;;
43042;SDS011;28667;50.758;6.096;2022-11-15T03:54:11;3.07;;;1.60;;
43042;SDS011;28667;50.758;6.096;2022-11-15T03:56:56;1.55;;;1.10;;
43042;SDS011;28667;50.758;6.096;2022-11-15T03:59:41;1.40;;;1.30;;
43042;SDS011;28667;50.758;6.096;2022-11-15T04:02:25;3.50;;;1.50;;
43042;SDS011;28667;50.758;6.096;2022-11-15T04:05:10;1.97;;;1.60;;
43042;SDS011;28667;50.758;6.096;2022-11-15T04:07:57;1.75;;;1.38;;
43042;SDS011;28667;50.758;6.096;2022-11-15T04:10:42;1.95;;;1.20;;
43042;SDS011;28667;50.758;6.096;2022-11-15T04:13:26;1.33;;;1.23;;
43042;SDS011;28667;50.758;6.096;2022-11-15T04:16:10;1.17;;;0.98;;
43042;SDS011;28667;50.758;6.096;2022-11-15T04:18:54;1.85;;;0.93;;
43042;SDS011;28667;50.758;6.096;2022-11-15T04:21:57;1.50;;;0.90;;
43042;SDS011;28667;50.758;6.096;2022-11-15T04:25:00;1.15;;;0.77;;
43042;SDS011;28667;50.758;6.096;2022-11-15T04:27:44;1.40;;;1.10;;
43042;SDS011;28667;50.758;6.096;2022-11-15T04:30:28;0.80;;;0.80;;
43042;SDS011;28667;50.758;6.096;2022-11-15T04:33:13;1.40;;;0.95;;
43042;SDS011;28667;50.758;6.096;2022-11-15T04:35:57;0.77;;;0.77;;
43042;SDS011;28667;50.758;6.096;2022-11-15T04:39:00;0.60;;;0.60;;
43042;SDS011;28667;50.758;6.096;2022-11-15T04:41:44;0.60;;;0.52;;
43042;SDS011;28667;50.758;6.096;2022-11-15T04:44:29;0.70;;;0.70;;
43042;SDS011;28667;50.758;6.096;2022-11-15T04:47:13;0.68;;;0.63;;
43042;SDS011;28667;50.758;6.096;2022-11-15T04:49:57;0.50;;;0.50;;
43042;SDS011;28667;50.758;6.096;2022-11-15T04:52:50;0.70;;;0.60;;
43042;SDS011;28667;50.758;6.096;2022-11-15T04:55:35;0.65;;;0.55;;
43042;SDS011;28667;50.758;6.096;2022-11-15T04:58:19;1.00;;;0.63;;
43042;SDS011;28667;50.758;6.096;2022-11-15T05:01:10;0.60;;;0.50;;
43042;SDS011;28667;50.758;6.096;2022-11-15T05:03:58;0.45;;;0.40;;
43042;SDS011;28667;50.758;6.096;2022-11-15T05:07:01;1.60;;;0.45;;
43042;SDS011;28667;50.758;6.096;2022-11-15T05:09:47;0.45;;;0.43;;
43042;SDS011;28667;50.758;6.096;2022-11-15T05:12:31;0.20;;;0.20;;
43042;SDS011;28667;50.758;6.096;2022-11-15T05:15:16;0.47;;;0.47;;
43042;SDS011;28667;50.758;6.096;2022-11-15T05:18:00;0.85;;;0.47;;
43042;SDS011;28667;50.758;6.096;2022-11-15T05:20:44;1.50;;;0.40;;
43042;SDS011;28667;50.758;6.096;2022-11-15T05:23:29;1.67;;;0.50;;
43042;SDS011;28667;50.758;6.096;2022-11-15T05:26:13;1.27;;;0.50;;
43042;SDS011;28667;50.758;6.096;2022-11-15T05:29:00;0.30;;;0.30;;
43042;SDS011;28667;50.758;6.096;2022-11-15T05:31:44;0.25;;;0.25;;
43042;SDS011;28667;50.758;6.096;2022-11-15T05:34:28;0.50;;;0.40;;
43042;SDS011;28667;50.758;6.096;2022-11-15T05:37:16;0.50;;;0.30;;
43042;SDS011;28667;50.758;6.096;2022-11-15T05:40:01;0.50;;;0.50;;
43042;SDS011;28667;50.758;6.096;2022-11-15T05:42:45;0.60;;;0.60;;
43042;SDS011;28667;50.758;6.096;2022-11-15T05:45:31;0.75;;;0.35;;
43042;SDS011;28667;50.758;6.096;2022-11-15T05:48:17;0.30;;;0.30;;
43042;SDS011;28667;50.758;6.096;2022-11-15T05:51:02;0.30;;;0.28;;
43042;SDS011;28667;50.758;6.096;2022-11-15T05:53:48;0.45;;;0.35;;
43042;SDS011;28667;50.758;6.096;2022-11-15T05:56:34;1.02;;;0.50;;
43042;SDS011;28667;50.758;6.096;2022-11-15T05:59:18;0.40;;;0.40;;
43042;SDS011;28667;50.758;6.096;2022-11-15T06:02:03;0.30;;;0.30;;
43042;SDS011;28667;50.758;6.096;2022-11-15T06:04:47;0.88;;;0.60;;
43042;SDS011;28667;50.758;6.096;2022-11-15T06:07:31;0.80;;;0.50;;
43042;SDS011;28667;50.758;6.096;2022-11-15T06:10:16;0.38;;;0.38;;
43042;SDS011;28667;50.758;6.096;2022-11-15T06:13:01;0.40;;;0.40;;
43042;SDS011;28667;50.758;6.096;2022-11-15T06:15:47;0.60;;;0.60;;
43042;SDS011;28667;50.758;6.096;2022-11-15T06:18:32;4.88;;;0.63;;
43042;SDS011;28667;50.758;6.096;2022-11-15T06:24:01;0.50;;;0.50;;
43042;SDS011;28667;50.758;6.096;2022-11-15T06:26:46;2.03;;;0.70;;
43042;SDS011;28667;50.758;6.096;2022-11-15T06:29:30;1.38;;;0.82;;
43042;SDS011;28667;50.758;6.096;2022-11-15T06:32:14;0.50;;;0.40;;
43042;SDS011;28667;50.758;6.096;2022-11-15T06:34:59;0.65;;;0.60;;
43042;SDS011;28667;50.758;6.096;2022-11-15T06:37:43;1.08;;;0.77;;
43042;SDS011;28667;50.758;6.096;2022-11-15T06:40:27;0.95;;;0.60;;
43042;SDS011;28667;50.758;6.096;2022-11-15T06:43:11;2.92;;;0.70;;
43042;SDS011;28667;50.758;6.096;2022-11-15T06:45:57;1.07;;;0.63;;
43042;SDS011;28667;50.758;6.096;2022-11-15T06:48:43;1.23;;;0.40;;
43042;SDS011;28667;50.758;6.096;2022-11-15T06:51:27;1.73;;;0.60;;
43042;SDS011;28667;50.758;6.096;2022-11-15T06:54:11;0.68;;;0.40;;
43042;SDS011;28667;50.758;6.096;2022-11-15T06:56:55;0.43;;;0.43;;
43042;SDS011;28667;50.758;6.096;2022-11-15T06:59:39;1.27;;;0.73;;
43042;SDS011;28667;50.758;6.096;2022-11-15T07:02:23;0.60;;;0.60;;
43042;SDS011;28667;50.758;6.096;2022-11-15T07:05:07;0.85;;;0.68;;
43042;SDS011;28667;50.758;6.096;2022-11-15T07:07:52;0.45;;;0.45;;
43042;SDS011;28667;50.758;6.096;2022-11-15T07:10:38;1.35;;;0.90;;
43042;SDS011;28667;50.758;6.096;2022-11-15T07:13:24;0.57;;;0.57;;
43042;SDS011;28667;50.758;6.096;2022-11-15T07:16:09;0.93;;;0.88;;
43042;SDS011;28667;50.758;6.096;2022-11-15T07:18:54;0.73;;;0.70;;
43042;SDS011;28667;50.758;6.096;2022-11-15T07:21:39;0.47;;;0.40;;
43042;SDS011;28667;50.758;6.096;2022-11-15T07:24:23;0.50;;;0.40;;
43042;SDS011;28667;50.758;6.096;2022-11-15T07:27:07;0.63;;;0.63;;
43042;SDS011;28667;50.758;6.096;2022-11-15T07:29:51;4.95;;;0.70;;
43042;SDS011;28667;50.758;6.096;2022-11-15T07:32:35;2.65;;;0.70;;
43042;SDS011;28667;50.758;6.096;2022-11-15T07:35:19;1.80;;;0.43;;
43042;SDS011;28667;50.758;6.096;2022-11-15T07:38:04;0.80;;;0.70;;
43042;SDS011;28667;50.758;6.096;2022-11-15T07:40:55;0.30;;;0.30;;
43042;SDS011;28667;50.758;6.096;2022-11-15T07:43:41;2.15;;;0.80;;
43042;SDS011;28667;50.758;6.096;2022-11-15T07:46:25;0.60;;;0.60;;
43042;SDS011;28667;50.758;6.096;2022-11-15T07:49:09;0.45;;;0.30;;
43042;SDS011;28667;50.758;6.096;2022-11-15T07:51:53;1.73;;;0.32;;
43042;SDS011;28667;50.758;6.096;2022-11-15T07:54:37;1.42;;;0.52;;
43042;SDS011;28667;50.758;6.096;2022-11-15T07:57:22;0.40;;;0.37;;
43042;SDS011;28667;50.758;6.096;2022-11-15T08:00:06;1.98;;;0.30;;
43042;SDS011;28667;50.758;6.096;2022-11-15T08:02:51;1.10;;;0.40;;
43042;SDS011;28667;50.758;6.096;2022-11-15T08:05:36;0.40;;;0.40;;
43042;SDS011;28667;50.758;6.096;2022-11-15T08:08:21;2.88;;;0.30;;
43042;SDS011;28667;50.758;6.096;2022-11-15T08:11:05;0.25;;;0.25;;
43042;SDS011;28667;50.758;6.096;2022-11-15T08:13:49;0.30;;;0.30;;
43042;SDS011;28667;50.758;6.096;2022-11-15T08:16:33;1.52;;;0.50;;
43042;SDS011;28667;50.758;6.096;2022-11-15T08:19:18;1.10;;;0.60;;
43042;SDS011;28667;50.758;6.096;2022-11-15T08:22:02;0.68;;;0.40;;
43042;SDS011;28667;50.758;6.096;2022-11-15T08:24:46;3.63;;;0.52;;
43042;SDS011;28667;50.758;6.096;2022-11-15T08:27:30;1.80;;;0.35;;
43042;SDS011;28667;50.758;6.096;2022-11-15T08:30:14;2.85;;;0.80;;
43042;SDS011;28667;50.758;6.096;2022-11-15T08:32:59;0.93;;;0.60;;
43042;SDS011;28667;50.758;6.096;2022-11-15T08:35:44;0.40;;;0.40;;
43042;SDS011;28667;50.758;6.096;2022-11-15T08:38:28;0.30;;;0.20;;
43042;SDS011;28667;50.758;6.096;2022-11-15T08:41:16;3.10;;;0.45;;
43042;SDS011;28667;50.758;6.096;2022-11-15T08:44:09;0.80;;;0.55;;
43042;SDS011;28667;50.758;6.096;2022-11-15T08:46:53;0.38;;;0.38;;
43042;SDS011;28667;50.758;6.096;2022-11-15T08:49:38;0.80;;;0.45;;
43042;SDS011;28667;50.758;6.096;2022-11-15T08:52:22;1.27;;;0.43;;
43042;SDS011;28667;50.758;6.096;2022-11-15T08:55:06;1.27;;;0.50;;
43042;SDS011;28667;50.758;6.096;2022-11-15T08:57:51;5.38;;;0.77;;
43042;SDS011;28667;50.758;6.096;2022-11-15T09:00:35;0.30;;;0.30;;
43042;SDS011;28667;50.758;6.096;2022-11-15T09:03:20;0.52;;;0.38;;
43042;SDS011;28667;50.758;6.096;2022-11-15T09:06:04;0.20;;;0.20;;
43042;SDS011;28667;50.758;6.096;2022-11-15T09:08:48;1.25;;;0.47;;
43042;SDS011;28667;50.758;6.096;2022-11-15T09:11:32;0.90;;;0.35;;
43042;SDS011;28667;50.758;6.096;2022-11-15T09:14:17;1.70;;;0.30;;
43042;SDS011;28667;50.758;6.096;2022-11-15T09:17:01;1.80;;;0.38;;
43042;SDS011;28667;50.758;6.096;2022-11-15T09:19:45;0.30;;;0.30;;
43042;SDS011;28667;50.758;6.096;2022-11-15T09:22:29;3.60;;;0.38;;
43042;SDS011;28667;50.758;6.096;2022-11-15T09:25:14;1.27;;;0.30;;
43042;SDS011;28667;50.758;6.096;2022-11-15T09:27:58;0.43;;;0.30;;
43042;SDS011;28667;50.758;6.096;2022-11-15T09:30:43;0.20;;;0.20;;
43042;SDS011;28667;50.758;6.096;2022-11-15T09:33:27;0.43;;;0.43;;
43042;SDS011;28667;50.758;6.096;2022-11-15T09:36:12;1.27;;;0.40;;
43042;SDS011;28667;50.758;6.096;2022-11-15T09:38:57;1.52;;;0.40;;
43042;SDS011;28667;50.758;6.096;2022-11-15T09:41:48;0.20;;;0.10;;
43042;SDS011;28667;50.758;6.096;2022-11-15T09:53:14;1.52;;;0.20;;
43042;SDS011;28667;50.758;6.096;2022-11-15T09:56:02;2.65;;;0.63;;
43042;SDS011;28667;50.758;6.096;2022-11-15T10:01:36;0.10;;;0.10;;
43042;SDS011;28667;50.758;6.096;2022-11-15T10:04:23;1.63;;;0.67;;
43042;SDS011;28667;50.758;6.096;2022-11-15T10:12:16;0.70;;;0.30;;
43042;SDS011;28667;50.758;6.096;2022-11-15T10:14:42;1.67;;;0.55;;
43042;SDS011;28667;50.758;6.096;2022-11-15T10:17:55;0.95;;;0.22;;
43042;SDS011;28667;50.758;6.096;2022-11-15T10:30:45;1.17;;;0.30;;
43042;SDS011;28667;50.758;6.096;2022-11-15T10:33:21;0.28;;;0.20;;
43042;SDS011;28667;50.758;6.096;2022-11-15T10:38:50;0.47;;;0.10;;
43042;SDS011;28667;50.758;6.096;2022-11-15T10:43:44;0.93;;;0.32;;
43042;SDS011;28667;50.758;6.096;2022-11-15T10:46:19;2.15;;;0.30;;
43042;SDS011;28667;50.758;6.096;2022-11-15T10:48:47;3.10;;;0.32;;
43042;SDS011;28667;50.758;6.096;2022-11-15T10:51:23;2.17;;;0.40;;
43042;SDS011;28667;50.758;6.096;2022-11-15T10:53:59;0.38;;;0.10;;
43042;SDS011;28667;50.758;6.096;2022-11-15T10:56:26;0.35;;;0.20;;
43042;SDS011;28667;50.758;6.096;2022-11-15T10:58:58;1.45;;;0.50;;
43042;SDS011;28667;50.758;6.096;2022-11-15T11:01:25;0.40;;;0.22;;
43042;SDS011;28667;50.758;6.096;2022-11-15T11:11:57;0.17;;;0.10;;
43042;SDS011;28667;50.758;6.096;2022-11-15T11:14:26;1.48;;;0.20;;
43042;SDS011;28667;50.758;6.096;2022-11-15T11:33:31;0.30;;;0.10;;
43042;SDS011;28667;50.758;6.096;2022-11-15T11:36:24;1.92;;;0.70;;
43042;SDS011;28667;50.758;6.096;2022-11-15T11:50:40;2.58;;;0.20;;
43042;SDS011;28667;50.758;6.096;2022-11-15T11:53:15;0.43;;;0.20;;
43042;SDS011;28667;50.758;6.096;2022-11-15T11:55:53;0.60;;;0.50;;
43042;SDS011;28667;50.758;6.096;2022-11-15T11:58:26;0.77;;;0.52;;
43042;SDS011;28667;50.758;6.096;2022-11-15T12:00:56;0.32;;;0.30;;
43042;SDS011;28667;50.758;6.096;2022-11-15T12:03:38;0.93;;;0.20;;
43042;SDS011;28667;50.758;6.096;2022-11-15T12:08:50;1.17;;;0.30;;
43042;SDS011;28667;50.758;6.096;2022-11-15T12:14:35;1.90;;;0.50;;
43042;SDS011;28667;50.758;6.096;2022-11-15T12:17:26;1.60;;;0.30;;
43042;SDS011;28667;50.758;6.096;2022-11-15T12:19:57;1.75;;;0.40;;
43042;SDS011;28667;50.758;6.096;2022-11-15T12:25:48;3.50;;;0.68;;
43042;SDS011;28667;50.758;6.096;2022-11-15T12:27:53;0.90;;;0.40;;
43042;SDS011;28667;50.758;6.096;2022-11-15T12:33:29;0.80;;;0.47;;
43042;SDS011;28667;50.758;6.096;2022-11-15T12:35:59;0.68;;;0.47;;
43042;SDS011;28667;50.758;6.096;2022-11-15T12:41:19;0.40;;;0.40;;
43042;SDS011;28667;50.758;6.096;2022-11-15T12:43:47;1.25;;;0.30;;
43042;SDS011;28667;50.758;6.096;2022-11-15T12:52:03;1.30;;;0.50;;
43042;SDS011;28667;50.758;6.096;2022-11-15T12:59:47;0.90;;;0.50;;
43042;SDS011;28667;50.758;6.096;2022-11-15T13:02:29;2.33;;;0.50;;
43042;SDS011;28667;50.758;6.096;2022-11-15T13:12:52;0.30;;;0.30;;
43042;SDS011;28667;50.758;6.096;2022-11-15T13:15:35;0.60;;;0.38;;
43042;SDS011;28667;50.758;6.096;2022-11-15T13:18:34;1.40;;;1.13;;
43042;SDS011;28667;50.758;6.096;2022-11-15T13:21:03;1.42;;;0.50;;
43042;SDS011;28667;50.758;6.096;2022-11-15T13:23:53;0.90;;;0.68;;
43042;SDS011;28667;50.758;6.096;2022-11-15T13:26:20;0.80;;;0.57;;
43042;SDS011;28667;50.758;6.096;2022-11-15T13:28:50;0.77;;;0.50;;
43042;SDS011;28667;50.758;6.096;2022-11-15T13:31:28;0.50;;;0.50;;
43042;SDS011;28667;50.758;6.096;2022-11-15T13:34:25;0.63;;;0.50;;
43042;SDS011;28667;50.758;6.096;2022-11-15T13:37:01;2.47;;;0.57;;
43042;SDS011;28667;50.758;6.096;2022-11-15T13:39:32;0.50;;;0.40;;
43042;SDS011;28667;50.758;6.096;2022-11-15T13:41:59;0.35;;;0.32;;
43042;SDS011;28667;50.758;6.096;2022-11-15T13:44:27;0.85;;;0.50;;
43042;SDS011;28667;50.758;6.096;2022-11-15T13:47:06;0.52;;;0.52;;
43042;SDS011;28667;50.758;6.096;2022-11-15T13:49:38;1.85;;;0.60;;
43042;SDS011;28667;50.758;6.096;2022-11-15T13:52:05;0.45;;;0.45;;
43042;SDS011;28667;50.758;6.096;2022-11-15T13:54:38;0.90;;;0.60;;
43042;SDS011;28667;50.758;6.096;2022-11-15T13:57:13;3.00;;;0.85;;
43042;SDS011;28667;50.758;6.096;2022-11-15T14:02:18;0.40;;;0.40;;
43042;SDS011;28667;50.758;6.096;2022-11-15T14:07:39;0.80;;;0.65;;
43042;SDS011;28667;50.758;6.096;2022-11-15T14:10:24;0.63;;;0.60;;
43042;SDS011;28667;50.758;6.096;2022-11-15T14:12:53;1.33;;;0.50;;
43042;SDS011;28667;50.758;6.096;2022-11-15T14:17:51;0.40;;;0.40;;
43042;SDS011;28667;50.758;6.096;2022-11-15T14:20:36;0.68;;;0.52;;
43042;SDS011;28667;50.758;6.096;2022-11-15T14:25:58;1.38;;;0.82;;
43042;SDS011;28667;50.758;6.096;2022-11-15T14:30:54;0.50;;;0.40;;
43042;SDS011;28667;50.758;6.096;2022-11-15T14:33:29;0.65;;;0.65;;
43042;SDS011;28667;50.758;6.096;2022-11-15T14:35:55;0.73;;;0.70;;
43042;SDS011;28667;50.758;6.096;2022-11-15T14:38:23;0.60;;;0.60;;
43042;SDS011;28667;50.758;6.096;2022-11-15T14:40:50;0.50;;;0.50;;
43042;SDS011;28667;50.758;6.096;2022-11-15T14:43:15;0.90;;;0.63;;
43042;SDS011;28667;50.758;6.096;2022-11-15T14:45:42;0.43;;;0.43;;
43042;SDS011;28667;50.758;6.096;2022-11-15T14:48:08;0.88;;;0.60;;
43042;SDS011;28667;50.758;6.096;2022-11-15T14:50:33;1.08;;;0.40;;
43042;SDS011;28667;50.758;6.096;2022-11-15T14:53:00;0.50;;;0.50;;
43042;SDS011;28667;50.758;6.096;2022-11-15T14:57:58;0.65;;;0.65;;
43042;SDS011;28667;50.758;6.096;2022-11-15T15:00:24;0.60;;;0.60;;
43042;SDS011;28667;50.758;6.096;2022-11-15T15:02:51;0.50;;;0.50;;
43042;SDS011;28667;50.758;6.096;2022-11-15T15:05:20;1.80;;;0.57;;
43042;SDS011;28667;50.758;6.096;2022-11-15T15:07:48;0.43;;;0.40;;
43042;SDS011;28667;50.758;6.096;2022-11-15T15:10:16;0.73;;;0.50;;
43042;SDS011;28667;50.758;6.096;2022-11-15T15:12:42;0.40;;;0.40;;
43042;SDS011;28667;50.758;6.096;2022-11-15T15:15:15;0.77;;;0.43;;
43042;SDS011;28667;50.758;6.096;2022-11-15T15:17:42;0.50;;;0.50;;
43042;SDS011;28667;50.758;6.096;2022-11-15T15:20:09;1.67;;;0.60;;
43042;SDS011;28667;50.758;6.096;2022-11-15T15:22:35;0.98;;;0.60;;
43042;SDS011;28667;50.758;6.096;2022-11-15T15:25:02;0.80;;;0.68;;
43042;SDS011;28667;50.758;6.096;2022-11-15T15:27:29;0.77;;;0.50;;
43042;SDS011;28667;50.758;6.096;2022-11-15T15:29:55;0.50;;;0.50;;
43042;SDS011;28667;50.758;6.096;2022-11-15T15:32:21;1.02;;;0.40;;
43042;SDS011;28667;50.758;6.096;2022-11-15T15:34:46;0.40;;;0.40;;
43042;SDS011;28667;50.758;6.096;2022-11-15T15:39:41;0.70;;;0.70;;
43042;SDS011;28667;50.758;6.096;2022-11-15T15:42:06;0.75;;;0.55;;
43042;SDS011;28667;50.758;6.096;2022-11-15T15:44:32;0.68;;;0.63;;
43042;SDS011;28667;50.758;6.096;2022-11-15T15:46:58;0.82;;;0.55;;
43042;SDS011;28667;50.758;6.096;2022-11-15T15:49:24;0.90;;;0.60;;
43042;SDS011;28667;50.758;6.096;2022-11-15T15:51:49;0.38;;;0.35;;
43042;SDS011;28667;50.758;6.096;2022-11-15T15:54:15;3.33;;;0.68;;
43042;SDS011;28667;50.758;6.096;2022-11-15T15:56:41;0.55;;;0.50;;
43042;SDS011;28667;50.758;6.096;2022-11-15T15:59:07;1.00;;;0.80;;
43042;SDS011;28667;50.758;6.096;2022-11-15T16:01:32;1.35;;;0.57;;
43042;SDS011;28667;50.758;6.096;2022-11-15T16:03:58;1.10;;;0.63;;
43042;SDS011;28667;50.758;6.096;2022-11-15T16:06:45;1.70;;;0.93;;
43042;SDS011;28667;50.758;6.096;2022-11-15T16:09:14;0.93;;;0.77;;
43042;SDS011;28667;50.758;6.096;2022-11-15T16:11:41;1.33;;;0.60;;
43042;SDS011;28667;50.758;6.096;2022-11-15T16:14:07;0.63;;;0.63;;
43042;SDS011;28667;50.758;6.096;2022-11-15T16:16:34;0.50;;;0.50;;
43042;SDS011;28667;50.758;6.096;2022-11-15T16:19:00;0.85;;;0.60;;
43042;SDS011;28667;50.758;6.096;2022-11-15T16:21:26;0.93;;;0.70;;
43042;SDS011;28667;50.758;6.096;2022-11-15T16:23:52;0.93;;;0.57;;
43042;SDS011;28667;50.758;6.096;2022-11-15T16:26:25;0.88;;;0.73;;
43042;SDS011;28667;50.758;6.096;2022-11-15T16:28:53;1.17;;;0.50;;
43042;SDS011;28667;50.758;6.096;2022-11-15T16:31:19;0.73;;;0.70;;
43042;SDS011;28667;50.758;6.096;2022-11-15T16:33:47;2.30;;;1.20;;
43042;SDS011;28667;50.758;6.096;2022-11-15T16:36:23;6.65;;;2.28;;
43042;SDS011;28667;50.758;6.096;2022-11-15T16:38:51;6.07;;;2.42;;
43042;SDS011;28667;50.758;6.096;2022-11-15T16:41:17;5.95;;;2.97;;
43042;SDS011;28667;50.758;6.096;2022-11-15T16:43:47;3.78;;;2.55;;
43042;SDS011;28667;50.758;6.096;2022-11-15T16:46:17;5.53;;;2.25;;
43042;SDS011;28667;50.758;6.096;2022-11-15T16:48:45;4.40;;;2.80;;
43042;SDS011;28667;50.758;6.096;2022-11-15T16:51:12;5.45;;;2.28;;
43042;SDS011;28667;50.758;6.096;2022-11-15T16:53:38;4.18;;;2.03;;
43042;SDS011;28667;50.758;6.096;2022-11-15T16:56:24;3.08;;;1.58;;
43042;SDS011;28667;50.758;6.096;2022-11-15T16:58:55;3.03;;;1.15;;
43042;SDS011;28667;50.758;6.096;2022-11-15T17:01:35;3.25;;;0.95;;
43042;SDS011;28667;50.758;6.096;2022-11-15T17:06:38;1.85;;;0.88;;
43042;SDS011;28667;50.758;6.096;2022-11-15T17:09:05;1.02;;;0.85;;
43042;SDS011;28667;50.758;6.096;2022-11-15T17:11:35;2.00;;;1.15;;
43042;SDS011;28667;50.758;6.096;2022-11-15T17:14:00;1.23;;;1.10;;
43042;SDS011;28667;50.758;6.096;2022-11-15T17:16:26;2.72;;;1.05;;
43042;SDS011;28667;50.758;6.096;2022-11-15T17:18:52;1.20;;;0.90;;
43042;SDS011;28667;50.758;6.096;2022-11-15T17:21:19;1.85;;;1.17;;
43042;SDS011;28667;50.758;6.096;2022-11-15T17:23:46;3.08;;;1.38;;
43042;SDS011;28667;50.758;6.096;2022-11-15T17:26:12;1.20;;;1.10;;
43042;SDS011;28667;50.758;6.096;2022-11-15T17:28:39;1.88;;;1.42;;
43042;SDS011;28667;50.758;6.096;2022-11-15T17:31:06;2.00;;;1.40;;
43042;SDS011;28667;50.758;6.096;2022-11-15T17:33:33;2.65;;;1.63;;
43042;SDS011;28667;50.758;6.096;2022-11-15T17:36:00;2.20;;;1.33;;
43042;SDS011;28667;50.758;6.096;2022-11-15T17:38:27;2.33;;;1.60;;
43042;SDS011;28667;50.758;6.096;2022-11-15T17:41:06;2.45;;;1.55;;
43042;SDS011;28667;50.758;6.096;2022-11-15T17:43:39;1.50;;;1.40;;
43042;SDS011;28667;50.758;6.096;2022-11-15T17:46:07;1.33;;;1.23;;
43042;SDS011;28667;50.758;6.096;2022-11-15T17:48:35;1.50;;;1.40;;
43042;SDS011;28667;50.758;6.096;2022-11-15T17:51:02;2.08;;;1.40;;
43042;SDS011;28667;50.758;6.096;2022-11-15T17:53:33;1.17;;;1.05;;
43042;SDS011;28667;50.758;6.096;2022-11-15T17:56:05;1.27;;;1.17;;
43042;SDS011;28667;50.758;6.096;2022-11-15T17:58:33;1.48;;;1.25;;
43042;SDS011;28667;50.758;6.096;2022-11-15T18:03:48;2.30;;;1.30;;
43042;SDS011;28667;50.758;6.096;2022-11-15T18:06:15;1.60;;;1.05;;
43042;SDS011;28667;50.758;6.096;2022-11-15T18:08:42;1.55;;;1.35;;
43042;SDS011;28667;50.758;6.096;2022-11-15T18:11:15;2.30;;;0.90;;
43042;SDS011;28667;50.758;6.096;2022-11-15T18:13:47;1.98;;;1.33;;
43042;SDS011;28667;50.758;6.096;2022-11-15T18:16:15;2.35;;;1.52;;
43042;SDS011;28667;50.758;6.096;2022-11-15T18:18:42;1.75;;;1.30;;
43042;SDS011;28667;50.758;6.096;2022-11-15T18:21:10;1.50;;;1.40;;
43042;SDS011;28667;50.758;6.096;2022-11-15T18:23:38;2.90;;;1.45;;
43042;SDS011;28667;50.758;6.096;2022-11-15T18:26:05;0.88;;;0.82;;
43042;SDS011;28667;50.758;6.096;2022-11-15T18:28:33;1.25;;;0.90;;
43042;SDS011;28667;50.758;6.096;2022-11-15T18:31:00;1.58;;;1.40;;
43042;SDS011;28667;50.758;6.096;2022-11-15T18:33:28;0.80;;;0.80;;
43042;SDS011;28667;50.758;6.096;2022-11-15T18:35:58;1.20;;;1.10;;
43042;SDS011;28667;50.758;6.096;2022-11-15T18:38:28;1.20;;;1.10;;
43042;SDS011;28667;50.758;6.096;2022-11-15T18:41:14;1.05;;;0.95;;
43042;SDS011;28667;50.758;6.096;2022-11-15T18:43:53;1.35;;;1.25;;
43042;SDS011;28667;50.758;6.096;2022-11-15T18:46:21;1.10;;;0.98;;
43042;SDS011;28667;50.758;6.096;2022-11-15T18:48:49;1.90;;;1.00;;
43042;SDS011;28667;50.758;6.096;2022-11-15T18:51:19;1.17;;;1.08;;